Search METAR Data

METAR Data for LYTV:

LYTV 241200Z 20007KT 140V270 9999 SCT050 17/06 Q1009 TEMPO 21017KT